Time;durP1;ratioP1;P1;durP2;ratioP2;P2;SDS_P1;SDS_P2;PMS_P1;PMS_P2;Temp;Humidity;BMP_temperature;BMP_pressure;BME280_temperature;BME280_humidity;BME280_pressure;Samples;Min_cycle;Max_cycle;Signal;HPM_P1;HPM_P2
2022/04/03 00:00:48;;;;;;;11.70;5.22;;;-2.90;99.90;;;;;;5016272;28;20048;-80
2022/04/03 00:03:14;;;;;;;12.35;5.75;;;-2.90;99.90;;;;;;5032004;28;20116;-81
2022/04/03 00:05:42;;;;;;;11.60;5.60;;;-2.90;99.90;;;;;;4996135;28;20432;-81
2022/04/03 00:08:09;;;;;;;9.00;4.55;;;-2.90;99.90;;;;;;5014383;28;20428;-81
2022/04/03 00:10:36;;;;;;;14.00;4.70;;;-2.90;99.90;;;;;;5017882;28;20045;-81
2022/04/03 00:13:02;;;;;;;7.63;3.90;;;-3.00;99.90;;;;;;5000699;28;20140;-81
2022/04/03 00:15:28;;;;;;;6.32;3.47;;;-3.10;99.90;;;;;;5018647;28;20163;-80
2022/04/03 00:17:55;;;;;;;14.57;4.32;;;-3.10;99.90;;;;;;5035473;28;20045;-81
2022/04/03 00:20:20;;;;;;;6.63;3.45;;;-3.20;99.90;;;;;;5037815;28;20041;-80
2022/04/03 00:22:48;;;;;;;9.82;3.58;;;-3.20;99.90;;;;;;5037420;28;20037;-81
2022/04/03 00:25:15;;;;;;;8.80;3.28;;;-3.30;99.90;;;;;;5020234;28;20522;-81
2022/04/03 00:27:41;;;;;;;8.32;3.95;;;-3.30;99.90;;;;;;5031072;28;20049;-80
2022/04/03 00:30:08;;;;;;;11.10;4.80;;;-3.40;99.90;;;;;;5037689;28;20045;-81
2022/04/03 00:32:34;;;;;;;7.80;4.18;;;-3.40;99.90;;;;;;5037334;28;20041;-80
2022/04/03 00:35:01;;;;;;;9.93;4.55;;;-3.40;99.90;;;;;;5022453;28;20124;-81
2022/04/03 00:37:27;;;;;;;12.35;4.20;;;-3.50;99.90;;;;;;5024523;28;20049;-81
2022/04/03 00:39:52;;;;;;;9.43;4.53;;;-3.50;99.90;;;;;;5017294;28;20038;-81
2022/04/03 00:42:18;;;;;;;10.90;4.95;;;-3.60;99.90;;;;;;5016776;28;20370;-81
2022/04/03 00:44:44;;;;;;;10.52;4.65;;;-3.60;99.90;;;;;;5029569;28;20111;-81
2022/04/03 00:47:11;;;;;;;8.80;4.63;;;-3.70;99.90;;;;;;5029159;28;20042;-81
2022/04/03 00:49:37;;;;;;;10.02;4.75;;;-3.70;99.90;;;;;;5016614;28;20053;-81
2022/04/03 00:52:03;;;;;;;5.63;3.40;;;-3.70;99.90;;;;;;5016770;28;20045;-81
2022/04/03 00:54:29;;;;;;;12.82;4.45;;;-3.70;99.90;;;;;;5016740;28;20393;-81
2022/04/03 00:56:55;;;;;;;9.55;3.95;;;-3.80;99.90;;;;;;5016907;28;20516;-81
2022/04/03 00:59:20;;;;;;;11.77;4.43;;;-3.80;99.90;;;;;;5017040;28;20038;-80
2022/04/03 01:01:46;;;;;;;8.23;3.78;;;-3.80;99.90;;;;;;4999855;28;20153;-81
2022/04/03 01:04:12;;;;;;;10.32;4.40;;;-3.80;99.90;;;;;;5016974;28;20049;-81
2022/04/03 01:06:37;;;;;;;8.05;3.75;;;-3.80;99.90;;;;;;5019757;28;20061;-81
2022/04/03 01:09:04;;;;;;;7.70;4.22;;;-3.70;99.90;;;;;;5018786;28;20052;-80
2022/04/03 01:11:30;;;;;;;9.32;4.13;;;-3.70;99.90;;;;;;5036868;28;20148;-81
2022/04/03 01:13:57;;;;;;;10.25;5.15;;;-3.70;99.90;;;;;;5037086;28;20048;-81
2022/04/03 01:16:22;;;;;;;8.23;4.00;;;-3.60;99.90;;;;;;5036895;28;20053;-81
2022/04/03 01:18:49;;;;;;;8.13;4.05;;;-3.60;99.90;;;;;;5017397;28;20038;-81
2022/04/03 01:21:16;;;;;;;9.95;4.10;;;-3.60;99.90;;;;;;5016227;28;20053;-81
2022/04/03 01:23:42;;;;;;;12.45;3.88;;;-3.70;99.90;;;;;;5017611;28;20092;-81
2022/04/03 01:26:07;;;;;;;11.88;4.47;;;-3.70;99.90;;;;;;5017188;28;20115;-81
2022/04/03 01:28:33;;;;;;;9.77;4.75;;;-3.80;99.90;;;;;;5034069;28;20042;-81
2022/04/03 01:30:58;;;;;;;5.60;3.45;;;-3.80;99.90;;;;;;5036945;28;20395;-81
2022/04/03 01:33:24;;;;;;;12.20;4.05;;;-3.80;99.90;;;;;;5036481;28;20112;-81
2022/04/03 01:35:50;;;;;;;8.48;3.90;;;-3.90;99.90;;;;;;5036698;28;20103;-81
2022/04/03 01:38:16;;;;;;;11.45;4.32;;;-3.90;99.90;;;;;;5023897;28;20069;-81
2022/04/03 01:40:41;;;;;;;9.93;4.20;;;-3.90;99.90;;;;;;5017037;28;20037;-81
2022/04/03 01:43:09;;;;;;;15.57;4.97;;;-3.90;99.90;;;;;;5079126;23;20045;-79
2022/04/03 01:45:36;;;;;;;8.20;3.95;;;-4.00;99.90;;;;;;5060237;28;20070;-79
2022/04/03 01:48:02;;;;;;;9.35;3.70;;;-4.00;99.90;;;;;;5087631;28;20430;-79
2022/04/03 01:50:28;;;;;;;8.00;3.65;;;-4.00;99.90;;;;;;5089143;28;20110;-79
2022/04/03 01:52:53;;;;;;;5.55;3.28;;;-4.00;99.90;;;;;;5083060;28;20036;-80
2022/04/03 01:55:19;;;;;;;8.85;4.35;;;-3.90;99.90;;;;;;5072088;28;20044;-79
2022/04/03 01:57:45;;;;;;;6.85;3.40;;;-3.90;99.90;;;;;;5089639;28;20080;-80
2022/04/03 02:00:12;;;;;;;8.13;3.42;;;-4.00;99.90;;;;;;5089806;28;20056;-80
2022/04/03 02:02:39;;;;;;;7.00;3.72;;;-4.00;99.90;;;;;;5091214;28;20032;-80
2022/04/03 02:05:05;;;;;;;6.95;3.85;;;-4.00;99.90;;;;;;5096967;28;20087;-80
2022/04/03 02:07:33;;;;;;;11.15;4.05;;;-3.60;99.90;;;;;;5096643;28;20038;-80
2022/04/03 02:09:59;;;;;;;6.40;3.30;;;-4.00;99.90;;;;;;5097356;28;20020;-80
2022/04/03 02:12:25;;;;;;;6.30;3.72;;;-4.00;99.90;;;;;;5098964;28;20088;-80
2022/04/03 02:14:50;;;;;;;11.85;4.07;;;-4.00;99.90;;;;;;5097842;28;20039;-80
2022/04/03 02:17:16;;;;;;;9.27;4.10;;;-4.00;99.90;;;;;;5085936;28;20101;-80
2022/04/03 02:19:41;;;;;;;6.78;3.70;;;-4.00;99.90;;;;;;5072820;28;20104;-80
2022/04/03 02:22:08;;;;;;;8.60;3.97;;;-4.00;99.90;;;;;;5072576;28;20407;-80
2022/04/03 02:24:34;;;;;;;11.35;4.00;;;-4.10;99.90;;;;;;5084111;28;20552;-80
2022/04/03 02:26:59;;;;;;;7.03;4.07;;;-4.10;99.90;;;;;;5091859;28;20096;-80
2022/04/03 02:29:25;;;;;;;6.68;3.65;;;-4.10;99.90;;;;;;5073684;28;20041;-80
2022/04/03 02:31:51;;;;;;;9.60;4.13;;;-4.00;99.90;;;;;;5072916;28;20057;-80
2022/04/03 02:34:17;;;;;;;8.15;4.07;;;-3.90;99.90;;;;;;5081378;28;20048;-81
2022/04/03 02:36:43;;;;;;;9.43;4.20;;;-3.90;99.90;;;;;;5092995;28;20064;-81
2022/04/03 02:39:10;;;;;;;8.75;4.25;;;-3.80;99.90;;;;;;5092983;28;20050;-81
2022/04/03 02:41:35;;;;;;;9.13;4.47;;;-3.60;99.90;;;;;;5093243;28;20029;-80
2022/04/03 02:44:03;;;;;;;7.80;3.83;;;-3.40;99.90;;;;;;5107518;28;20032;-81
2022/04/03 02:46:29;;;;;;;7.20;3.55;;;-3.20;99.90;;;;;;5096391;28;20044;-81
2022/04/03 02:48:55;;;;;;;6.72;3.88;;;-3.00;99.90;;;;;;5113651;28;20417;-80
2022/04/03 02:51:20;;;;;;;8.85;4.00;;;-2.90;99.90;;;;;;5110177;28;20064;-81
2022/04/03 02:53:46;;;;;;;9.68;4.57;;;-2.80;99.90;;;;;;5074808;28;20040;-81
2022/04/03 02:56:12;;;;;;;7.30;3.40;;;-2.60;99.90;;;;;;5094100;28;20041;-81
2022/04/03 02:58:37;;;;;;;10.55;4.28;;;-2.50;99.90;;;;;;5094380;28;20041;-81
2022/04/03 03:01:03;;;;;;;7.28;3.80;;;-2.40;99.90;;;;;;5093983;28;20044;-81
2022/04/03 03:03:29;;;;;;;8.52;3.40;;;-2.30;99.90;;;;;;5097317;28;20032;-81
2022/04/03 03:05:54;;;;;;;8.10;3.97;;;-2.20;99.90;;;;;;5094773;28;20049;-81
2022/04/03 03:08:20;;;;;;;10.77;4.18;;;-2.10;99.90;;;;;;5114579;28;20032;-80
2022/04/03 03:10:45;;;;;;;10.82;4.00;;;-1.90;99.90;;;;;;5114715;28;20066;-80
2022/04/03 03:13:12;;;;;;;8.48;4.53;;;-1.90;99.90;;;;;;5110776;28;20062;-80
2022/04/03 03:15:39;;;;;;;10.68;3.78;;;-1.80;99.90;;;;;;5092640;28;20056;-80
2022/04/03 03:18:07;;;;;;;13.50;4.53;;;-1.70;99.90;;;;;;5075124;28;20074;-80
2022/04/03 03:20:33;;;;;;;6.68;3.42;;;-1.50;99.90;;;;;;5090241;28;20112;-80
2022/04/03 03:23:00;;;;;;;6.07;3.80;;;-1.20;99.90;;;;;;5090681;28;20503;-80
2022/04/03 03:25:29;;;;;;;10.15;3.95;;;-0.80;99.90;;;;;;5092155;28;20057;-81
2022/04/03 03:27:55;;;;;;;7.72;4.35;;;-0.60;99.90;;;;;;5091272;28;20051;-80
2022/04/03 03:30:21;;;;;;;7.78;4.35;;;-0.60;99.90;;;;;;5092164;28;20052;-81
2022/04/03 03:32:46;;;;;;;7.65;4.35;;;-0.50;99.90;;;;;;5088731;28;20052;-81
2022/04/03 03:35:12;;;;;;;8.65;4.68;;;-0.40;99.90;;;;;;5107984;28;20036;-80
2022/04/03 03:37:38;;;;;;;11.45;5.22;;;-0.30;99.90;;;;;;5092904;28;20051;-81
2022/04/03 03:40:06;;;;;;;14.63;4.90;;;-0.30;99.90;;;;;;5108094;28;20051;-81
2022/04/03 03:42:32;;;;;;;8.88;4.75;;;-0.20;99.90;;;;;;5105933;28;20148;-81
2022/04/03 03:44:59;;;;;;;7.22;4.28;;;0.00;99.90;;;;;;5090351;28;20044;-81
2022/04/03 03:47:25;;;;;;;11.07;4.13;;;0.10;99.90;;;;;;5106080;28;20048;-79
2022/04/03 03:49:51;;;;;;;7.28;4.25;;;0.20;99.90;;;;;;5092684;28;20048;-79
2022/04/03 03:52:16;;;;;;;7.50;4.10;;;0.20;99.90;;;;;;5094357;28;20039;-80
2022/04/03 03:54:43;;;;;;;13.57;4.88;;;0.20;99.90;;;;;;5095898;28;20403;-80
2022/04/03 03:57:09;;;;;;;8.93;4.55;;;0.20;99.90;;;;;;5097201;28;20056;-80
2022/04/03 03:59:34;;;;;;;7.18;4.68;;;0.20;99.90;;;;;;5097773;28;20052;-80
2022/04/03 04:02:01;;;;;;;7.43;4.60;;;0.10;99.90;;;;;;5098074;28;20036;-80
2022/04/03 04:04:29;;;;;;;11.32;4.65;;;0.10;99.90;;;;;;5115171;28;20052;-81
2022/04/03 04:06:55;;;;;;;10.60;4.85;;;0.00;99.90;;;;;;5099331;28;20043;-80
2022/04/03 04:09:20;;;;;;;9.45;5.00;;;0.00;99.90;;;;;;5098462;28;20044;-80
2022/04/03 04:11:46;;;;;;;8.10;4.60;;;-0.10;99.90;;;;;;5099304;28;20028;-80
2022/04/03 04:14:12;;;;;;;8.43;4.82;;;-0.10;99.90;;;;;;5101157;28;20126;-80
2022/04/03 04:16:38;;;;;;;8.40;4.30;;;-0.10;99.90;;;;;;5101446;28;20088;-81
2022/04/03 04:19:03;;;;;;;6.20;3.55;;;-0.20;99.90;;;;;;5101080;28;20033;-81
2022/04/03 04:21:29;;;;;;;9.10;5.22;;;-0.30;99.90;;;;;;5101070;28;20032;-80
2022/04/03 04:23:54;;;;;;;7.22;4.30;;;-0.30;99.90;;;;;;5100881;28;20033;-81
2022/04/03 04:26:20;;;;;;;11.73;5.25;;;-0.40;99.90;;;;;;5083569;28;20028;-81
2022/04/03 04:28:48;;;;;;;10.57;4.88;;;-0.50;99.90;;;;;;5099193;28;20094;-80
2022/04/03 04:31:14;;;;;;;10.70;4.75;;;-0.60;99.90;;;;;;5098664;28;20032;-80
2022/04/03 04:33:40;;;;;;;8.23;4.40;;;-0.70;99.90;;;;;;5098506;28;20033;-80
2022/04/03 04:36:07;;;;;;;10.30;4.50;;;-0.90;99.90;;;;;;5097166;28;20037;-80
2022/04/03 04:38:32;;;;;;;10.75;5.55;;;-0.90;99.90;;;;;;5097002;28;20081;-80
2022/04/03 04:40:58;;;;;;;11.65;6.10;;;-1.00;99.90;;;;;;5096848;28;20044;-80
2022/04/03 04:43:23;;;;;;;20.77;6.63;;;-1.20;99.90;;;;;;5097106;28;20060;-80
2022/04/03 04:45:49;;;;;;;8.93;5.05;;;-1.20;99.90;;;;;;5097390;28;20049;-80
2022/04/03 04:48:16;;;;;;;8.75;4.75;;;-1.20;99.90;;;;;;5097081;28;20064;-80
2022/04/03 04:50:41;;;;;;;11.85;5.25;;;-1.20;99.90;;;;;;5097388;28;20037;-80
2022/04/03 04:53:07;;;;;;;14.48;6.13;;;-1.20;99.90;;;;;;5113720;28;20070;-80
2022/04/03 04:55:32;;;;;;;14.60;5.93;;;-1.20;99.90;;;;;;5095310;28;20055;-80
2022/04/03 04:57:58;;;;;;;11.45;6.88;;;-1.10;99.90;;;;;;5097054;28;20047;-79
2022/04/03 05:00:26;;;;;;;15.57;6.22;;;-1.00;99.90;;;;;;5097073;28;20041;-80
2022/04/03 05:02:52;;;;;;;11.98;5.63;;;-1.00;99.90;;;;;;5111578;28;20048;-80
2022/04/03 05:05:20;;;;;;;10.18;5.57;;;-1.00;99.90;;;;;;5116159;28;20050;-79
2022/04/03 05:07:48;;;;;;;7.85;5.00;;;-1.00;99.90;;;;;;5116622;28;20091;-79
2022/04/03 05:10:15;;;;;;;14.60;5.22;;;-1.20;99.90;;;;;;5117175;28;20051;-80
2022/04/03 05:12:42;;;;;;;8.43;5.32;;;-1.30;99.90;;;;;;5117726;28;20054;-80
2022/04/03 05:15:10;;;;;;;10.07;5.57;;;-1.40;99.90;;;;;;5115819;28;20043;-80
2022/04/03 05:17:36;;;;;;;9.65;5.15;;;-1.50;99.90;;;;;;5097933;28;20055;-79
2022/04/03 05:20:03;;;;;;;11.55;5.25;;;-1.00;99.90;;;;;;5116544;28;20044;-80
2022/04/03 05:22:29;;;;;;;10.38;5.30;;;-1.70;99.90;;;;;;5112598;28;20079;-80
2022/04/03 05:24:54;;;;;;;12.98;5.68;;;-1.70;99.90;;;;;;5117266;28;20036;-80
2022/04/03 05:27:20;;;;;;;14.80;5.38;;;-1.80;99.90;;;;;;5118096;28;20044;-80
2022/04/03 05:29:46;;;;;;;11.95;5.47;;;-1.80;99.90;;;;;;5116911;28;20067;-80
2022/04/03 05:32:12;;;;;;;11.88;5.78;;;-1.90;99.90;;;;;;5111374;28;20127;-80
2022/04/03 05:34:38;;;;;;;11.20;6.43;;;-1.90;99.90;;;;;;5094933;28;20743;-80
2022/04/03 05:37:04;;;;;;;12.27;7.43;;;-1.90;99.90;;;;;;5094933;28;20067;-80
2022/04/03 05:39:29;;;;;;;14.70;8.65;;;-1.90;99.90;;;;;;5100225;28;20028;-80
2022/04/03 05:41:55;;;;;;;16.15;8.50;;;-1.90;99.90;;;;;;5114311;28;20066;-80
2022/04/03 05:44:24;;;;;;;12.93;7.32;;;-1.90;99.90;;;;;;5114448;28;20838;-80
2022/04/03 05:46:51;;;;;;;11.77;6.65;;;-1.80;99.90;;;;;;5115398;28;20052;-80
2022/04/03 05:49:17;;;;;;;13.38;7.68;;;-1.70;99.90;;;;;;5116678;28;20061;-80
2022/04/03 05:51:43;;;;;;;11.80;8.23;;;-1.70;99.90;;;;;;5099802;28;20100;-80
2022/04/03 05:54:09;;;;;;;13.05;7.70;;;-1.60;99.90;;;;;;5118401;28;20040;-80
2022/04/03 05:56:35;;;;;;;11.38;6.80;;;-1.40;99.90;;;;;;5118261;28;20355;-80
2022/04/03 05:59:02;;;;;;;13.30;6.53;;;-1.30;99.90;;;;;;5100842;28;20087;-80
2022/04/03 06:01:27;;;;;;;9.95;5.82;;;-1.00;99.90;;;;;;5116658;28;20051;-81
2022/04/03 06:03:53;;;;;;;17.85;7.40;;;-0.80;99.90;;;;;;5085400;28;20048;-79
2022/04/03 06:06:18;;;;;;;13.45;6.03;;;-0.60;99.90;;;;;;5116373;28;20044;-79
2022/04/03 06:08:44;;;;;;;11.13;6.32;;;-0.40;99.90;;;;;;5116636;28;20051;-79
2022/04/03 06:11:10;;;;;;;15.65;6.60;;;-0.30;99.90;;;;;;5099938;28;20044;-80
2022/04/03 06:13:36;;;;;;;12.20;5.57;;;-0.20;99.90;;;;;;5116174;28;20096;-80
2022/04/03 06:16:02;;;;;;;7.50;4.30;;;-0.20;99.90;;;;;;5116468;28;20031;-81
2022/04/03 06:18:28;;;;;;;9.25;4.55;;;-0.20;99.90;;;;;;5103146;28;20028;-79
2022/04/03 06:20:54;;;;;;;6.93;4.00;;;-0.10;99.90;;;;;;5094186;28;20102;-80
2022/04/03 06:23:22;;;;;;;9.68;4.60;;;0.00;99.90;;;;;;5103088;28;20045;-80
2022/04/03 06:25:52;;;;;;;8.32;4.93;;;0.40;99.90;;;;;;5108659;28;20070;-81
2022/04/03 06:28:18;;;;;;;10.98;4.65;;;1.20;99.90;;;;;;5087310;28;20068;-80
2022/04/03 06:30:44;;;;;;;7.00;4.00;;;1.70;99.90;;;;;;5095689;28;20064;-81
2022/04/03 06:33:13;;;;;;;9.88;4.68;;;1.70;99.90;;;;;;5087220;28;20047;-79
2022/04/03 06:35:39;;;;;;;11.85;5.50;;;1.60;99.90;;;;;;5086745;28;20040;-80
2022/04/03 06:38:05;;;;;;;8.05;4.47;;;1.80;99.90;;;;;;5082317;28;20047;-80
2022/04/03 06:40:34;;;;;;;9.23;2.67;;;2.30;99.90;;;;;;5058168;28;20032;-80
2022/04/03 06:43:01;;;;;;;4.43;2.53;;;2.40;99.90;;;;;;5089097;28;20053;-80
2022/04/03 06:45:27;;;;;;;6.07;3.33;;;2.50;99.90;;;;;;5105341;28;20055;-80
2022/04/03 06:47:53;;;;;;;3.83;2.03;;;2.30;99.90;;;;;;5107808;28;20043;-80
2022/04/03 06:50:19;;;;;;;6.10;2.90;;;2.30;99.90;;;;;;5089837;28;20486;-80
2022/04/03 06:52:46;;;;;;;4.88;1.85;;;2.20;99.90;;;;;;5101385;28;20028;-80
2022/04/03 06:55:12;;;;;;;6.78;2.20;;;2.20;99.90;;;;;;5095468;28;20045;-81
2022/04/03 06:57:38;;;;;;;5.32;2.38;;;2.20;99.90;;;;;;5090063;28;20462;-80
2022/04/03 07:00:06;;;;;;;6.20;2.28;;;2.20;99.90;;;;;;5090406;28;20059;-80
2022/04/03 07:02:32;;;;;;;9.55;2.70;;;2.40;99.90;;;;;;5079553;28;20047;-80
2022/04/03 07:04:58;;;;;;;9.23;2.72;;;2.40;99.90;;;;;;5083520;28;20044;-80
2022/04/03 07:07:24;;;;;;;10.40;7.60;;;2.50;99.90;;;;;;5078690;28;20063;-80
2022/04/03 07:09:52;;;;;;;8.32;4.22;;;2.90;99.90;;;;;;5076050;28;20041;-81
2022/04/03 07:12:18;;;;;;;5.72;2.67;;;3.10;99.90;;;;;;5079570;28;20040;-81
2022/04/03 07:14:44;;;;;;;14.60;3.22;;;3.20;99.90;;;;;;5080359;28;20105;-81
2022/04/03 07:17:09;;;;;;;11.25;3.03;;;3.20;99.90;;;;;;5079820;28;20033;-81
2022/04/03 07:19:35;;;;;;;5.35;2.15;;;3.10;99.90;;;;;;5077977;28;20033;-81
2022/04/03 07:22:01;;;;;;;10.75;2.92;;;3.00;99.90;;;;;;5085316;28;20033;-81
2022/04/03 07:24:27;;;;;;;6.05;2.42;;;2.90;99.90;;;;;;5079387;28;20032;-82
2022/04/03 07:26:54;;;;;;;7.55;2.60;;;2.90;99.90;;;;;;5095592;28;20080;-83
2022/04/03 07:29:20;;;;;;;6.32;2.13;;;3.00;99.90;;;;;;5094912;28;20031;-82
2022/04/03 07:31:46;;;;;;;5.57;2.15;;;3.00;99.90;;;;;;5083379;28;20037;-82
2022/04/03 07:34:12;;;;;;;4.72;1.40;;;3.10;99.90;;;;;;5085149;28;20203;-82
2022/04/03 07:36:38;;;;;;;7.57;1.42;;;3.10;99.90;;;;;;5089585;28;20009;-82
2022/04/03 07:39:03;;;;;;;6.00;2.00;;;3.20;99.90;;;;;;5065278;28;20028;-82
2022/04/03 07:41:29;;;;;;;5.60;1.65;;;3.40;99.90;;;;;;5099275;28;20075;-82
2022/04/03 07:43:55;;;;;;;3.55;1.60;;;3.60;99.90;;;;;;5084541;28;20053;-81
2022/04/03 07:46:20;;;;;;;3.13;1.38;;;3.80;99.90;;;;;;5099330;28;20028;-81
2022/04/03 07:48:46;;;;;;;9.10;1.30;;;3.90;99.90;;;;;;5073183;28;20043;-80
2022/04/03 07:51:12;;;;;;;6.88;1.77;;;4.00;99.90;;;;;;5083693;28;20045;-80
2022/04/03 07:53:38;;;;;;;6.20;1.17;;;3.90;99.90;;;;;;5060591;28;20108;-80
2022/04/03 07:56:05;;;;;;;4.75;1.67;;;3.90;99.90;;;;;;5065938;28;20166;-81
2022/04/03 07:58:35;;;;;;;11.52;2.58;;;4.00;99.90;;;;;;5097669;28;20033;-82
2022/04/03 08:01:01;;;;;;;3.28;1.42;;;4.00;99.90;;;;;;5087663;28;20039;-82
2022/04/03 08:03:27;;;;;;;5.53;1.70;;;4.20;99.90;;;;;;5086770;28;20040;-82
2022/04/03 08:05:53;;;;;;;3.15;0.80;;;4.30;99.90;;;;;;5070525;28;20044;-82
2022/04/03 08:08:19;;;;;;;6.53;1.30;;;4.60;99.90;;;;;;5065660;28;20510;-82
2022/04/03 08:10:44;;;;;;;4.00;0.93;;;4.70;99.90;;;;;;5063792;28;20051;-81
2022/04/03 08:13:10;;;;;;;2.78;0.95;;;5.00;99.90;;;;;;5068008;28;20048;-82
2022/04/03 08:15:36;;;;;;;4.47;1.50;;;5.60;99.90;;;;;;5084662;28;20038;-82
2022/04/03 08:18:01;;;;;;;4.95;1.17;;;6.20;99.90;;;;;;5057727;28;20060;-82
2022/04/03 08:20:27;;;;;;;3.90;0.70;;;7.00;99.90;;;;;;5068231;28;20041;-82
2022/04/03 08:22:53;;;;;;;1.42;0.88;;;7.40;99.90;;;;;;5062478;28;20050;-82
2022/04/03 08:25:18;;;;;;;4.00;0.80;;;7.70;99.90;;;;;;5059195;28;20033;-82
2022/04/03 08:27:49;;;;;;;4.15;0.80;;;8.30;99.90;;;;;;5065313;28;20432;-82
2022/04/03 08:30:22;;;;;;;3.40;0.70;;;8.40;99.90;;;;;;5075240;28;20478;-82
2022/04/03 08:32:49;;;;;;;4.05;0.50;;;8.40;99.90;;;;;;5057597;28;20557;-82
2022/04/03 08:35:15;;;;;;;3.10;0.60;;;8.00;99.90;;;;;;5069014;28;20052;-83
2022/04/03 08:37:42;;;;;;;5.50;0.65;;;8.00;99.90;;;;;;5076088;28;20470;-83
2022/04/03 08:40:09;;;;;;;3.30;0.90;;;7.80;99.90;;;;;;5077207;28;20064;-83
2022/04/03 08:42:35;;;;;;;4.05;0.80;;;7.80;99.90;;;;;;5068096;28;20037;-83
2022/04/03 08:45:02;;;;;;;3.83;0.80;;;8.20;99.90;;;;;;5083739;28;20064;-84
2022/04/03 08:47:29;;;;;;;4.15;1.05;;;8.50;99.90;;;;;;5086509;28;20051;-84
2022/04/03 08:50:00;;;;;;;5.38;0.73;;;8.80;99.90;;;;;;5102357;28;20508;-83
2022/04/03 08:52:27;;;;;;;3.75;0.90;;;9.20;99.90;;;;;;5109470;28;20036;-83
2022/04/03 08:54:53;;;;;;;3.00;0.68;;;9.30;99.90;;;;;;5093658;28;20093;-84
2022/04/03 08:57:20;;;;;;;2.42;1.00;;;9.30;99.90;;;;;;5110958;28;20036;-83
2022/04/03 08:59:45;;;;;;;3.42;0.60;;;9.60;99.90;;;;;;5093900;28;20063;-84
2022/04/03 09:02:14;;;;;;;2.13;0.65;;;10.00;99.50;;;;;;5106105;28;20095;-83
2022/04/03 09:04:39;;;;;;;4.30;1.05;;;10.60;98.10;;;;;;5086349;28;20087;-83
2022/04/03 09:07:05;;;;;;;1.35;0.50;;;10.40;95.10;;;;;;5075466;28;20037;-83
2022/04/03 09:09:31;;;;;;;2.50;0.63;;;10.50;99.40;;;;;;5074388;28;20048;-84
2022/04/03 09:12:09;;;;;;;3.50;0.55;;;10.90;92.60;;;;;;5089923;28;20501;-83
2022/04/03 09:14:35;;;;;;;2.08;0.70;;;10.20;87.90;;;;;;5089008;28;20037;-82
2022/04/03 09:17:01;;;;;;;3.30;0.70;;;8.90;99.60;;;;;;5088354;28;20033;-83
2022/04/03 09:19:34;;;;;;;4.38;0.90;;;8.70;99.90;;;;;;5099867;28;20398;-84
2022/04/03 09:22:01;;;;;;;2.85;0.90;;;8.10;99.90;;;;;;5103091;28;20045;-82
2022/04/03 09:24:28;;;;;;;4.20;0.60;;;8.60;99.90;;;;;;5088880;28;20105;-83
2022/04/03 09:27:11;;;;;;;4.35;0.70;;;8.70;99.90;;;;;;5108555;28;20182;-83
2022/04/03 09:29:37;;;;;;;1.60;0.38;;;9.10;94.10;;;;;;5105763;28;20044;-83
2022/04/03 09:32:03;;;;;;;3.45;0.60;;;8.90;95.70;;;;;;5092146;28;20102;-83
2022/04/03 09:34:29;;;;;;;2.92;0.68;;;8.60;95.80;;;;;;5107118;28;20066;-83
2022/04/03 09:37:00;;;;;;;3.75;0.70;;;8.10;96.60;;;;;;5112306;28;20040;-83
2022/04/03 09:39:29;;;;;;;3.35;0.90;;;8.60;99.90;;;;;;5095425;28;20040;-83
2022/04/03 09:42:11;;;;;;;3.30;0.60;;;9.80;99.90;;;;;;5113224;28;20119;-83
2022/04/03 09:44:39;;;;;;;4.85;0.75;;;11.10;99.90;;;;;;5091856;28;20091;-84
2022/04/03 09:47:13;;;;;;;4.75;0.73;;;12.00;81.10;;;;;;5102551;28;20379;-83
2022/04/03 09:49:44;;;;;;;3.97;0.70;;;10.50;81.70;;;;;;5090989;28;20102;-83
2022/04/03 09:52:10;;;;;;;1.92;0.73;;;10.00;74.10;;;;;;5094046;28;20076;-83
2022/04/03 09:54:39;;;;;;;4.60;0.65;;;9.40;91.00;;;;;;5085425;28;20036;-83
2022/04/03 09:57:19;;;;;;;2.65;0.70;;;8.90;84.80;;;;;;5101583;28;20040;-83
2022/04/03 09:59:53;;;;;;;2.22;0.63;;;8.40;91.70;;;;;;5101584;28;20533;-83
2022/04/03 10:02:20;;;;;;;4.57;0.80;;;8.10;98.30;;;;;;5087599;28;20169;-82
2022/04/03 10:04:46;;;;;;;4.47;0.70;;;8.20;98.80;;;;;;5105457;28;20076;-83
2022/04/03 10:07:13;;;;;;;2.72;0.60;;;8.60;99.90;;;;;;5097630;28;20036;-83
2022/04/03 10:09:45;;;;;;;4.45;1.15;;;8.40;99.90;;;;;;5100222;28;20054;-83
2022/04/03 10:12:14;;;;;;;3.70;0.70;;;8.00;99.50;;;;;;5071092;28;20052;-83
2022/04/03 10:14:41;;;;;;;4.40;0.55;;;7.60;93.90;;;;;;5063368;28;20044;-82
2022/04/03 10:17:10;;;;;;;2.58;0.80;;;7.40;97.80;;;;;;5092057;28;20079;-83
2022/04/03 10:19:35;;;;;;;4.85;0.57;;;7.70;99.90;;;;;;5105390;28;20047;-83
2022/04/03 10:22:03;;;;;;;1.83;0.60;;;8.20;99.90;;;;;;5106120;28;20490;-83
2022/04/03 10:24:30;;;;;;;1.20;0.30;;;8.70;99.70;;;;;;5084469;28;20379;-83
2022/04/03 10:27:24;;;;;;;2.75;0.38;;;9.10;87.40;;;;;;5102892;28;20051;-83
2022/04/03 10:29:54;;;;;;;1.08;0.40;;;9.40;70.80;;;;;;5105977;28;20044;-83
2022/04/03 10:32:34;;;;;;;2.35;0.40;;;9.50;91.30;;;;;;5103926;28;20394;-83
2022/04/03 10:35:04;;;;;;;2.38;0.47;;;9.90;85.00;;;;;;5108219;28;20052;-83
2022/04/03 10:37:29;;;;;;;2.67;0.60;;;9.40;70.00;;;;;;5102683;28;20574;-83
2022/04/03 10:40:05;;;;;;;1.20;0.43;;;9.80;78.00;;;;;;5100690;28;20032;-83
2022/04/03 10:42:31;;;;;;;1.90;0.43;;;9.60;53.30;;;;;;5081968;28;20044;-83
2022/04/03 10:45:12;;;;;;;4.47;0.55;;;10.00;48.30;;;;;;5083750;28;20089;-83
2022/04/03 10:47:45;;;;;;;1.38;0.40;;;10.40;43.50;;;;;;5084093;28;20051;-83
2022/04/03 10:50:14;;;;;;;3.15;0.50;;;10.30;61.40;;;;;;5103670;28;20068;-83
2022/04/03 10:52:42;;;;;;;1.05;0.28;;;10.70;67.00;;;;;;5105326;28;20040;-84
2022/04/03 10:55:17;;;;;;;2.95;0.40;;;11.60;71.80;;;;;;5083941;28;20041;-84
2022/04/03 10:58:04;;;;;;;4.00;0.95;;;11.50;44.00;;;;;;5102129;28;20043;-83
2022/04/03 11:00:31;;;;;;;3.65;0.98;;;10.70;45.60;;;;;;5082312;28;20097;-83
2022/04/03 11:02:57;;;;;;;3.50;0.75;;;10.30;63.00;;;;;;5082008;28;20048;-83
2022/04/03 11:05:25;;;;;;;3.60;0.70;;;9.70;64.60;;;;;;5100709;28;20062;-83
2022/04/03 11:08:01;;;;;;;4.20;1.02;;;9.00;84.10;;;;;;5085094;28;20077;-83
2022/04/03 11:10:59;;;;;;;3.10;0.38;;;9.10;85.20;;;;;;5108100;28;20059;-83
2022/04/03 11:13:31;;;;;;;2.80;0.73;;;9.30;77.40;;;;;;5105666;28;20043;-83
2022/04/03 11:16:00;;;;;;;2.00;0.60;;;9.60;75.60;;;;;;5106145;28;20044;-84
2022/04/03 11:18:42;;;;;;;2.35;0.80;;;10.30;67.60;;;;;;5105179;28;20070;-83
2022/04/03 11:21:27;;;;;;;1.85;0.40;;;11.20;83.10;;;;;;5101544;28;20036;-83
2022/04/03 11:24:13;;;;;;;1.85;0.40;;;11.30;62.90;;;;;;5099667;28;20055;-84
2022/04/03 11:26:40;;;;;;;1.98;0.50;;;10.90;45.30;;;;;;5092723;28;20087;-83
2022/04/03 11:29:08;;;;;;;4.00;0.68;;;10.10;59.10;;;;;;5067855;28;20059;-83
2022/04/03 11:31:35;;;;;;;5.38;0.77;;;9.00;81.70;;;;;;5076954;28;20055;-83
2022/04/03 11:34:01;;;;;;;6.22;1.08;;;8.70;93.00;;;;;;5074883;28;20102;-83
2022/04/03 11:36:31;;;;;;;2.72;0.85;;;8.10;99.90;;;;;;5057365;28;20449;-83
2022/04/03 11:39:00;;;;;;;3.60;0.98;;;8.00;99.90;;;;;;5059468;28;20048;-82
2022/04/03 11:41:28;;;;;;;3.70;0.82;;;7.50;99.90;;;;;;5078779;28;20433;-82
2022/04/03 11:44:05;;;;;;;2.83;0.95;;;7.50;99.90;;;;;;5077768;28;20540;-82
2022/04/03 11:46:36;;;;;;;2.78;0.70;;;7.40;99.90;;;;;;5077548;28;20128;-82
2022/04/03 11:49:13;;;;;;;5.18;1.10;;;7.40;99.90;;;;;;5064462;28;20052;-82
2022/04/03 11:51:40;;;;;;;4.22;1.17;;;7.50;99.90;;;;;;5079405;28;20037;-82
2022/04/03 11:54:07;;;;;;;4.50;0.70;;;7.60;99.90;;;;;;5077902;28;20041;-82
2022/04/03 11:56:35;;;;;;;6.20;1.40;;;7.50;99.90;;;;;;5059733;28;20479;-82
2022/04/03 11:59:03;;;;;;;6.43;1.17;;;7.30;99.90;;;;;;5088881;28;20050;-82
2022/04/03 12:01:38;;;;;;;3.42;1.08;;;7.60;99.90;;;;;;5099409;28;20040;-82
2022/04/03 12:04:13;;;;;;;3.60;0.75;;;8.30;99.90;;;;;;5103203;28;20090;-82
2022/04/03 12:06:49;;;;;;;3.05;0.60;;;8.80;99.90;;;;;;5086896;28;20103;-83
2022/04/03 12:09:16;;;;;;;2.55;1.27;;;8.90;99.90;;;;;;5084582;28;20398;-82
2022/04/03 12:11:51;;;;;;;4.93;1.10;;;8.60;99.90;;;;;;5068682;28;20113;-82
2022/04/03 12:14:25;;;;;;;2.92;1.00;;;8.60;99.90;;;;;;5102912;28;20134;-82
2022/04/03 12:17:06;;;;;;;3.85;0.70;;;8.40;99.90;;;;;;5102032;28;20040;-82
2022/04/03 12:19:47;;;;;;;3.70;1.10;;;8.90;99.90;;;;;;5102468;28;20079;-82
2022/04/03 12:22:20;;;;;;;1.83;0.40;;;8.90;99.90;;;;;;5087783;28;20036;-82
2022/04/03 12:24:49;;;;;;;1.63;0.50;;;8.80;95.00;;;;;;5105199;28;20080;-82
2022/04/03 12:27:14;;;;;;;5.65;0.85;;;7.90;98.60;;;;;;5078687;28;20064;-82
2022/04/03 12:29:45;;;;;;;5.40;2.25;;;7.60;99.90;;;;;;5083871;28;20490;-83
2022/04/03 12:32:17;;;;;;;5.47;1.15;;;7.50;99.90;;;;;;5086331;28;20048;-83
2022/04/03 12:34:44;;;;;;;2.05;0.50;;;7.80;99.90;;;;;;5070528;28;20075;-82
2022/04/03 12:37:12;;;;;;;1.42;0.73;;;7.20;99.90;;;;;;5085786;28;20040;-82
2022/04/03 12:39:45;;;;;;;0.88;0.32;;;8.00;99.90;;;;;;5087270;28;20120;-82
2022/04/03 12:42:37;;;;;;;0.98;0.50;;;8.20;97.60;;;;;;5086883;28;20401;-82
2022/04/03 12:45:08;;;;;;;1.95;0.50;;;8.30;99.90;;;;;;5090631;28;20093;-82
2022/04/03 12:47:37;;;;;;;2.35;0.60;;;9.00;95.70;;;;;;5090937;28;20036;-82
2022/04/03 12:50:03;;;;;;;1.92;0.45;;;9.20;93.10;;;;;;5095408;28;20099;-82